createdAt,value
2023-04-20T00:00:42.513Z,60.54
2023-04-20T00:02:07.771Z,60.56
2023-04-20T00:03:30.214Z,60.67
2023-04-20T00:04:52.019Z,60.56
2023-04-20T00:06:16.287Z,60.58
2023-04-20T00:07:38.761Z,60.35
2023-04-20T00:09:00.223Z,60.54
2023-04-20T00:10:22.401Z,60.37
2023-04-20T00:11:43.537Z,60.54
2023-04-20T00:13:07.113Z,60.27
2023-04-20T00:14:31.950Z,60.34
2023-04-20T00:15:54.079Z,60.54
2023-04-20T00:17:19.117Z,60.68
2023-04-20T00:18:40.752Z,60.64
2023-04-20T00:20:05.304Z,60.57
2023-04-20T00:21:27.312Z,60.61
2023-04-20T00:22:49.333Z,60.41
2023-04-20T00:24:11.685Z,60.60
2023-04-20T00:25:32.817Z,60.54
2023-04-20T00:26:55.826Z,60.77
2023-04-20T00:28:18.862Z,60.59
2023-04-20T00:29:41.609Z,60.29
2023-04-20T00:31:02.718Z,60.31
2023-04-20T00:32:28.729Z,60.25
2023-04-20T00:33:50.225Z,60.08
2023-04-20T00:35:12.619Z,60.06
2023-04-20T00:36:33.592Z,60.04
2023-04-20T00:37:57.838Z,60.11
2023-04-20T00:39:20.069Z,60.10
2023-04-20T00:40:53.173Z,60.41
2023-04-20T00:42:15.475Z,60.26
2023-04-20T00:43:38.172Z,60.43
2023-04-20T00:45:01.842Z,60.44
2023-04-20T00:46:27.456Z,60.48
2023-04-20T00:47:50.339Z,60.62
2023-04-20T00:49:11.972Z,60.46
2023-04-20T00:50:34.883Z,60.84
2023-04-20T00:51:57.386Z,60.85
2023-04-20T00:53:20.813Z,60.90
2023-04-20T00:54:45.823Z,60.92
2023-04-20T00:56:09.039Z,60.96
2023-04-20T00:57:31.390Z,60.91
2023-04-20T00:59:00.713Z,60.94
2023-04-20T01:00:26.321Z,60.88
2023-04-20T01:01:47.547Z,60.87
2023-04-20T01:03:10.961Z,60.97
2023-04-20T01:04:35.198Z,60.97
2023-04-20T01:05:57.855Z,60.86
2023-04-20T01:07:20.056Z,61.04
2023-04-20T01:08:49.223Z,61.02
2023-04-20T01:10:10.802Z,61.26
2023-04-20T01:11:34.899Z,61.04
2023-04-20T01:12:56.130Z,60.94
2023-04-20T01:14:19.956Z,60.80
2023-04-20T01:15:41.416Z,61.00
2023-04-20T01:17:06.366Z,60.88
2023-04-20T01:18:27.895Z,61.29
2023-04-20T01:19:52.201Z,61.13
2023-04-20T01:21:14.484Z,61.19
2023-04-20T01:22:45.420Z,61.31
2023-04-20T01:24:12.953Z,61.21
2023-04-20T01:25:40.344Z,61.28
2023-04-20T01:27:02.986Z,61.32
2023-04-20T01:28:29.801Z,61.35
2023-04-20T01:29:51.186Z,61.45
2023-04-20T01:31:14.362Z,61.55
2023-04-20T01:32:37.126Z,61.47
2023-04-20T01:33:59.954Z,61.49
2023-04-20T01:35:21.667Z,61.55
2023-04-20T01:36:43.901Z,61.63
2023-04-20T01:38:10.560Z,61.62
2023-04-20T01:39:35.589Z,61.58
2023-04-20T01:40:59.274Z,61.75
2023-04-20T01:42:22.990Z,61.48
2023-04-20T01:43:45.512Z,61.68
2023-04-20T01:45:08.957Z,61.72
2023-04-20T01:46:35.820Z,61.82
2023-04-20T01:47:58.225Z,61.82
2023-04-20T01:49:24.057Z,62.08
2023-04-20T01:50:46.432Z,61.93
2023-04-20T01:52:11.931Z,62.17
2023-04-20T01:53:36.248Z,62.23
2023-04-20T01:54:57.260Z,62.22
2023-04-20T01:56:19.987Z,62.21
2023-04-20T01:57:40.964Z,62.08
2023-04-20T01:59:03.588Z,62.18
2023-04-20T02:00:25.553Z,62.14
2023-04-20T02:01:50.685Z,62.04
2023-04-20T02:03:12.593Z,62.13
2023-04-20T02:04:35.004Z,62.28
2023-04-20T02:05:57.712Z,62.28
2023-04-20T02:07:27.040Z,62.13
2023-04-20T02:08:51.145Z,62.20
2023-04-20T02:10:15.284Z,62.23
2023-04-20T02:11:40.646Z,62.16
2023-04-20T02:13:04.419Z,62.10
2023-04-20T02:14:27.559Z,62.08
2023-04-20T02:15:49.826Z,62.36
2023-04-20T02:17:11.737Z,62.13
2023-04-20T02:18:36.289Z,62.17
2023-04-20T02:19:58.143Z,62.15
2023-04-20T02:21:23.387Z,62.23
2023-04-20T02:22:46.062Z,62.00
2023-04-20T02:24:09.670Z,62.29
2023-04-20T02:25:31.144Z,62.17
2023-04-20T02:26:59.209Z,62.38
2023-04-20T02:28:22.638Z,62.30
2023-04-20T02:29:45.221Z,62.50
2023-04-20T02:31:09.923Z,62.48
2023-04-20T02:32:37.418Z,62.37
2023-04-20T02:34:29.936Z,62.40
2023-04-20T02:36:00.320Z,62.26
2023-04-20T02:37:34.748Z,62.34
2023-04-20T02:38:57.361Z,62.29
2023-04-20T02:40:57.257Z,62.43
2023-04-20T02:42:28.106Z,62.36
2023-04-20T02:43:54.640Z,62.55
2023-04-20T02:45:18.899Z,62.68
2023-04-20T02:46:48.855Z,62.67
2023-04-20T02:50:32.513Z,62.80
2023-04-20T02:54:44.256Z,62.91
2023-04-20T02:56:40.823Z,62.64
2023-04-20T02:58:05.024Z,62.93
2023-04-20T02:59:50.014Z,62.90
2023-04-20T03:01:37.568Z,62.98
2023-04-20T03:03:06.937Z,63.03
2023-04-20T03:04:32.140Z,63.17
2023-04-20T03:06:00.425Z,63.10
2023-04-20T03:07:23.197Z,63.23
2023-04-20T03:08:46.978Z,63.02
2023-04-20T03:10:38.261Z,63.24
2023-04-20T03:12:11.023Z,63.02
2023-04-20T03:13:54.800Z,63.01
2023-04-20T03:15:17.317Z,63.11
2023-04-20T03:16:59.921Z,63.08
2023-04-20T03:18:21.438Z,62.93
2023-04-20T03:19:44.442Z,63.06
2023-04-20T03:21:07.502Z,62.93
2023-04-20T03:22:28.601Z,63.04
2023-04-20T03:23:54.015Z,62.76
2023-04-20T03:25:16.857Z,62.86
2023-04-20T03:26:47.732Z,63.00
2023-04-20T03:28:14.435Z,62.83
2023-04-20T03:29:37.276Z,62.75
2023-04-20T03:31:48.437Z,62.82
2023-04-20T03:39:25.176Z,62.46
2023-04-20T03:43:23.318Z,62.59
2023-04-20T03:45:40.216Z,62.74
2023-04-20T03:58:31.374Z,62.50
2023-04-20T04:00:15.843Z,62.28
2023-04-20T04:01:47.827Z,62.47
2023-04-20T04:03:12.816Z,62.38
2023-04-20T04:04:36.324Z,62.42
2023-04-20T04:06:04.224Z,62.76
2023-04-20T04:07:50.940Z,62.37
2023-04-20T04:10:23.384Z,62.33
2023-04-20T04:12:13.204Z,62.17
2023-04-20T04:13:53.615Z,62.14
2023-04-20T04:15:39.132Z,62.16
2023-04-20T04:17:30.918Z,62.08
2023-04-20T04:18:54.743Z,62.24
2023-04-20T04:20:54.171Z,62.16
2023-04-20T04:23:01.043Z,61.86
2023-04-20T04:24:29.386Z,61.76
2023-04-20T04:26:02.134Z,61.69
2023-04-20T04:27:35.117Z,61.51
2023-04-20T04:29:03.192Z,61.35
2023-04-20T04:30:30.909Z,61.37
2023-04-20T04:32:12.221Z,61.55
2023-04-20T06:02:15.464Z,59.76
2023-04-20T06:04:16.333Z,59.59
2023-04-20T06:07:39.940Z,60.13
2023-04-20T06:10:00.312Z,59.97
2023-04-20T06:13:27.862Z,60.22
2023-04-20T06:15:05.919Z,60.04
2023-04-20T06:17:13.355Z,60.16
2023-04-20T06:18:56.191Z,60.25
2023-04-20T06:21:02.920Z,60.30
2023-04-20T06:22:54.856Z,60.25
2023-04-20T06:24:25.123Z,60.24
2023-04-20T06:26:16.549Z,60.21
2023-04-20T06:27:51.331Z,60.13
2023-04-20T06:30:12.702Z,60.11
2023-04-20T06:31:35.230Z,60.01
2023-04-20T06:33:54.145Z,60.07
2023-04-20T06:35:57.746Z,60.16
2023-04-20T06:37:36.071Z,60.10
2023-04-20T06:39:19.736Z,60.12
2023-04-20T06:41:15.560Z,60.09
2023-04-20T06:42:42.416Z,60.05
2023-04-20T06:44:51.017Z,59.93
2023-04-20T06:46:15.412Z,60.00
2023-04-20T06:47:41.516Z,59.97
2023-04-20T06:49:31.474Z,59.73
2023-04-20T06:51:10.392Z,59.79
2023-04-20T06:52:53.424Z,59.79
2023-04-20T06:54:15.861Z,59.52
2023-04-20T06:55:38.364Z,59.43
2023-04-20T06:57:06.639Z,59.26
2023-04-20T06:58:29.071Z,59.16
2023-04-20T06:59:54.004Z,59.10
2023-04-20T07:01:22.171Z,58.98
2023-04-20T07:02:48.648Z,58.77
2023-04-20T07:04:11.427Z,58.64
2023-04-20T07:05:36.371Z,58.44
2023-04-20T07:07:02.414Z,58.27
2023-04-20T07:08:24.737Z,58.19
2023-04-20T07:09:46.043Z,57.82
2023-04-20T07:11:14.478Z,57.55
2023-04-20T07:14:44.704Z,57.38
2023-04-20T07:15:31.786Z,57.34
2023-04-20T07:20:42.998Z,57.42
2023-04-20T07:37:39.034Z,56.59
2023-04-20T07:39:05.535Z,56.24
2023-04-20T07:49:29.752Z,56.03
2023-04-20T07:54:51.642Z,55.99
2023-04-20T07:57:22.529Z,55.77
2023-04-20T08:48:37.933Z,53.17
2023-04-20T08:50:42.289Z,53.05
2023-04-20T08:52:24.004Z,52.85
2023-04-20T09:10:01.203Z,49.45
2023-04-20T09:12:09.071Z,48.86
2023-04-20T09:16:14.304Z,49.16
2023-04-20T09:17:43.108Z,48.97
2023-04-20T10:03:05.907Z,27.91
2023-04-20T10:05:44.412Z,26.13
2023-04-20T10:08:22.788Z,24.90
2023-04-20T10:10:40.024Z,23.76
2023-04-20T10:13:13.336Z,23.47
2023-04-20T10:15:00.995Z,24.71
2023-04-20T10:16:35.610Z,24.83
2023-04-20T10:18:25.642Z,24.84
2023-04-20T10:20:36.042Z,26.25
2023-04-20T10:22:08.774Z,26.54
2023-04-20T10:23:52.946Z,27.21
2023-04-20T10:25:28.221Z,27.67
2023-04-20T10:26:50.769Z,28.33
2023-04-20T10:28:44.817Z,29.16
2023-04-20T10:30:24.648Z,29.99
2023-04-20T10:31:47.238Z,30.48
2023-04-20T10:36:39.916Z,32.48
2023-04-20T10:38:05.159Z,32.59
2023-04-20T10:39:33.041Z,33.04
2023-04-20T10:40:58.206Z,33.16
2023-04-20T10:42:20.486Z,32.98
2023-04-20T10:43:44.347Z,32.93
2023-04-20T10:45:11.254Z,33.21
2023-04-20T10:46:36.560Z,33.38
2023-04-20T10:48:02.980Z,33.55
2023-04-20T10:49:29.069Z,33.41
2023-04-20T10:50:51.463Z,33.60
2023-04-20T10:52:13.857Z,33.44
2023-04-20T10:53:42.940Z,33.67
2023-04-20T10:55:47.770Z,33.67
2023-04-20T10:57:26.952Z,34.11
2023-04-20T11:07:33.583Z,34.08
2023-04-20T11:09:05.401Z,34.22
2023-04-20T11:11:01.180Z,34.79
2023-04-20T11:19:21.614Z,35.10
2023-04-20T11:23:27.642Z,36.14
2023-04-20T11:37:12.525Z,38.89
2023-04-20T11:39:12.249Z,39.38
2023-04-20T11:41:17.586Z,39.29
2023-04-20T11:42:53.690Z,39.88
2023-04-20T11:44:22.417Z,39.99
2023-04-20T11:46:24.768Z,40.13
2023-04-20T11:47:58.221Z,40.48
2023-04-20T11:52:40.478Z,41.01
2023-04-20T11:54:03.026Z,41.02
2023-04-20T11:56:50.269Z,41.61
2023-04-20T11:58:17.805Z,41.68
2023-04-20T12:00:12.177Z,42.01
2023-04-20T12:01:37.713Z,42.02
2023-04-20T12:03:00.255Z,41.90
2023-04-20T12:04:23.406Z,42.08
2023-04-20T12:05:46.241Z,42.27
2023-04-20T12:12:31.527Z,42.21
2023-04-20T12:16:56.736Z,42.14
2023-04-20T12:18:41.116Z,42.07
2023-04-20T12:20:09.064Z,42.13
2023-04-20T12:21:45.273Z,41.92
2023-04-20T12:23:07.491Z,42.09
2023-04-20T12:24:42.950Z,42.20
2023-04-20T12:26:53.244Z,42.46
2023-04-20T12:29:07.459Z,42.07
2023-04-20T12:31:36.329Z,41.66
2023-04-20T12:32:58.973Z,41.48
2023-04-20T12:34:21.722Z,41.43
2023-04-20T12:36:13.140Z,41.37
2023-04-20T12:38:55.173Z,41.40
2023-04-20T12:40:19.015Z,41.49
2023-04-20T12:41:46.056Z,42.10
2023-04-20T12:44:09.960Z,42.14
2023-04-20T12:45:34.472Z,42.53
2023-04-20T12:47:01.606Z,42.24
2023-04-20T12:49:02.700Z,41.93
2023-04-20T12:50:39.461Z,41.68
2023-04-20T12:53:02.617Z,41.42
2023-04-20T12:54:44.841Z,41.48
2023-04-20T12:56:57.014Z,41.80
2023-04-20T12:59:30.079Z,41.50
2023-04-20T13:01:20.695Z,40.92
2023-04-20T13:08:09.575Z,40.97
2023-04-20T13:13:00.899Z,41.45
2023-04-20T13:14:40.499Z,41.47
2023-04-20T13:16:18.033Z,41.86
2023-04-20T13:17:44.733Z,41.90
2023-04-20T13:19:54.182Z,42.00
2023-04-20T13:24:54.001Z,42.05
2023-04-20T13:26:46.428Z,41.87
2023-04-20T13:28:22.057Z,41.88
2023-04-20T13:30:06.647Z,41.42
2023-04-20T13:31:38.368Z,41.55
2023-04-20T13:33:00.895Z,41.63
2023-04-20T13:34:27.592Z,41.48
2023-04-20T13:36:06.843Z,41.30
2023-04-20T13:37:33.796Z,40.95
2023-04-20T13:42:40.205Z,41.25
2023-04-20T13:44:08.071Z,41.03
2023-04-20T13:49:23.986Z,41.14
2023-04-20T13:54:10.354Z,41.13
2023-04-20T13:58:53.840Z,41.16
2023-04-20T14:00:19.483Z,41.12
2023-04-20T14:32:06.445Z,42.16
2023-04-20T14:37:05.117Z,42.42
2023-04-20T14:38:33.605Z,42.57
2023-04-20T14:42:50.157Z,42.79
2023-04-20T14:47:32.059Z,43.32
2023-04-20T14:49:04.555Z,43.41
2023-04-20T14:50:38.994Z,43.67
2023-04-20T14:52:02.456Z,43.83
2023-04-20T14:53:24.853Z,43.80
2023-04-20T14:54:48.592Z,43.75
2023-04-20T14:56:14.320Z,44.17
2023-04-20T14:57:39.183Z,44.19
2023-04-20T14:59:04.197Z,43.92
2023-04-20T15:00:31.124Z,43.89
2023-04-20T15:02:03.093Z,43.90
2023-04-20T15:04:01.496Z,44.39
2023-04-20T15:05:28.431Z,44.45
2023-04-20T15:06:58.325Z,44.33
2023-04-20T15:08:34.229Z,44.74
2023-04-20T15:10:06.539Z,44.75
2023-04-20T15:11:32.048Z,44.88
2023-04-20T15:12:54.585Z,44.94
2023-04-20T15:14:35.813Z,44.92
2023-04-20T15:15:58.156Z,45.07
2023-04-20T15:19:03.842Z,45.29
2023-04-20T15:20:31.273Z,45.59
2023-04-20T15:21:56.557Z,45.73
2023-04-20T15:23:23.623Z,45.60
2023-04-20T15:24:46.338Z,45.48
2023-04-20T15:26:10.543Z,45.66
2023-04-20T15:27:33.286Z,45.57
2023-04-20T15:28:56.786Z,45.82
2023-04-20T15:30:22.356Z,45.73
2023-04-20T15:31:45.660Z,45.87
2023-04-20T15:33:08.368Z,46.19
2023-04-20T15:34:30.056Z,46.33
2023-04-20T15:35:57.965Z,45.66
2023-04-20T15:37:20.729Z,45.89
2023-04-20T15:38:42.948Z,45.86
2023-04-20T15:40:07.833Z,45.85
2023-04-20T15:41:47.216Z,45.94
2023-04-20T15:43:26.813Z,45.90
2023-04-20T15:44:52.017Z,45.86
2023-04-20T15:46:18.395Z,46.36
2023-04-20T15:47:44.247Z,46.38
2023-04-20T15:49:43.765Z,46.04
2023-04-20T15:51:16.282Z,46.11
2023-04-20T15:52:51.766Z,46.29
2023-04-20T15:54:17.153Z,46.26
2023-04-20T15:55:45.737Z,46.20
2023-04-20T15:57:07.427Z,46.21
2023-04-20T15:58:31.455Z,46.33
2023-04-20T15:59:54.217Z,46.38
2023-04-20T16:01:26.088Z,46.51
2023-04-20T16:02:49.986Z,46.48
2023-04-20T16:04:18.066Z,46.73
2023-04-20T16:05:40.982Z,46.79
2023-04-20T16:07:02.964Z,46.83
2023-04-20T16:08:25.219Z,46.71
2023-04-20T16:09:49.072Z,47.06
2023-04-20T16:11:11.373Z,47.03
2023-04-20T16:12:36.537Z,47.20
2023-04-20T16:13:58.731Z,47.35
2023-04-20T16:15:20.346Z,47.00
2023-04-20T16:16:43.655Z,47.32
2023-04-20T16:18:06.303Z,47.44
2023-04-20T16:19:28.860Z,47.40
2023-04-20T16:20:56.053Z,47.51
2023-04-20T16:22:18.466Z,47.72
2023-04-20T16:23:41.040Z,48.09
2023-04-20T16:25:03.735Z,48.33
2023-04-20T16:26:28.827Z,48.39
2023-04-20T16:27:50.341Z,48.28
2023-04-20T16:29:12.410Z,48.38
2023-04-20T16:30:37.121Z,48.19
2023-04-20T16:32:04.137Z,48.25
2023-04-20T16:33:30.565Z,48.15
2023-04-20T16:35:00.263Z,48.31
2023-04-20T16:36:27.442Z,48.25
2023-04-20T16:37:56.314Z,48.44
2023-04-20T16:39:19.523Z,48.35
2023-04-20T16:40:45.786Z,48.38
2023-04-20T16:42:10.045Z,48.47
2023-04-20T16:43:32.479Z,48.71
2023-04-20T16:44:58.311Z,48.74
2023-04-20T16:46:22.629Z,48.69
2023-04-20T16:47:52.040Z,48.75
2023-04-20T16:49:14.046Z,48.91
2023-04-20T16:50:40.290Z,49.21
2023-04-20T16:52:04.380Z,49.38
2023-04-20T16:53:32.947Z,49.30
2023-04-20T16:54:57.547Z,49.45
2023-04-20T16:56:27.256Z,49.45
2023-04-20T16:57:49.410Z,49.69
2023-04-20T16:59:28.390Z,50.17
2023-04-20T17:00:57.547Z,50.15
2023-04-20T17:02:30.667Z,50.39
2023-04-20T17:04:02.570Z,50.47
2023-04-20T17:05:25.424Z,50.40
2023-04-20T17:07:46.910Z,50.63
2023-04-20T17:09:32.657Z,50.73
2023-04-20T17:11:42.834Z,50.87
2023-04-20T17:23:17.558Z,51.52
2023-04-20T17:24:44.150Z,52.04
2023-04-20T17:26:29.763Z,52.32
2023-04-20T17:28:00.231Z,52.37
2023-04-20T17:29:38.370Z,52.58
2023-04-20T17:31:00.524Z,52.75
2023-04-20T17:32:22.173Z,52.99
2023-04-20T17:33:47.167Z,53.15
2023-04-20T17:35:12.428Z,53.65
2023-04-20T17:36:35.033Z,53.71
2023-04-20T17:37:57.293Z,53.62
2023-04-20T17:39:20.517Z,54.00
2023-04-20T17:40:46.871Z,53.89
2023-04-20T17:42:15.498Z,54.28
2023-04-20T17:43:40.559Z,54.32
2023-04-20T17:45:06.703Z,54.63
2023-04-20T17:46:32.494Z,54.51
2023-04-20T17:47:57.114Z,54.71
2023-04-20T17:49:51.898Z,54.86
2023-04-20T17:51:37.863Z,54.93
2023-04-20T17:53:14.438Z,55.08
2023-04-20T17:55:30.728Z,55.01
2023-04-20T18:02:14.150Z,55.21
2023-04-20T18:03:39.248Z,55.56
2023-04-20T18:05:01.555Z,55.56
2023-04-20T18:06:26.720Z,55.78
2023-04-20T18:07:55.149Z,55.92
2023-04-20T18:09:25.746Z,55.97
2023-04-20T18:10:48.581Z,56.16
2023-04-20T18:12:11.579Z,56.14
2023-04-20T18:13:33.625Z,56.34
2023-04-20T18:14:57.615Z,56.34
2023-04-20T18:16:21.623Z,56.46
2023-04-20T18:17:48.412Z,56.47
2023-04-20T18:19:10.689Z,56.61
2023-04-20T18:20:33.074Z,56.71
2023-04-20T18:22:27.474Z,56.86
2023-04-20T18:30:03.389Z,56.61
2023-04-20T18:31:30.886Z,56.98
2023-04-20T18:32:53.884Z,57.17
2023-04-20T18:34:18.320Z,57.28
2023-04-20T18:36:02.454Z,57.36
2023-04-20T18:37:35.747Z,57.34
2023-04-20T18:39:43.263Z,57.36
2023-04-20T18:41:09.764Z,57.29
2023-04-20T18:43:28.866Z,57.47
2023-04-20T18:45:30.765Z,57.30
2023-04-20T18:50:34.121Z,57.58
2023-04-20T18:52:11.528Z,57.53
2023-04-20T18:53:46.636Z,57.79
2023-04-20T18:55:20.982Z,57.94
2023-04-20T18:57:13.223Z,58.23
2023-04-20T18:59:15.048Z,58.37
2023-04-20T19:01:07.787Z,58.26
2023-04-20T19:03:08.128Z,58.27
2023-04-20T19:04:36.367Z,58.35
2023-04-20T19:05:58.187Z,58.58
2023-04-20T19:07:20.722Z,58.68
2023-04-20T19:08:42.692Z,58.70
2023-04-20T19:10:05.698Z,58.73
2023-04-20T19:11:32.941Z,58.81
2023-04-20T19:12:59.449Z,58.77
2023-04-20T19:14:30.967Z,59.25
2023-04-20T19:15:58.381Z,59.08
2023-04-20T19:17:20.792Z,59.20
2023-04-20T19:22:08.632Z,59.30
2023-04-20T19:24:10.731Z,59.41
2023-04-20T19:25:56.898Z,59.33
2023-04-20T19:28:09.722Z,59.27
2023-04-20T19:29:41.961Z,59.43
2023-04-20T19:31:08.520Z,59.37
2023-04-20T19:32:36.796Z,59.71
2023-04-20T19:34:09.853Z,59.58
2023-04-20T19:35:41.274Z,59.81
2023-04-20T19:38:03.491Z,59.98
2023-04-20T19:40:07.255Z,59.85
2023-04-20T19:41:49.598Z,59.94
2023-04-20T19:43:27.955Z,60.03
2023-04-20T19:48:25.514Z,59.84
2023-04-20T19:49:55.185Z,60.06
2023-04-20T20:42:13.148Z,61.68
2023-04-20T20:44:54.575Z,61.83
2023-04-20T20:46:45.656Z,62.04
2023-04-20T20:49:20.213Z,62.16
2023-04-20T20:51:27.813Z,62.08
2023-04-20T20:54:05.532Z,62.25
2023-04-20T20:56:33.750Z,62.19
2023-04-20T20:58:46.672Z,62.23
2023-04-20T21:00:19.628Z,62.37
2023-04-20T21:02:20.150Z,62.37
2023-04-20T21:04:13.674Z,62.36
2023-04-20T21:06:08.631Z,62.54
2023-04-20T21:07:48.240Z,62.72
2023-04-20T21:09:25.263Z,62.34
2023-04-20T21:10:51.909Z,62.23
2023-04-20T21:12:14.273Z,62.46
2023-04-20T21:13:41.429Z,62.52
2023-04-20T21:15:07.648Z,62.62
2023-04-20T21:16:30.416Z,62.57
2023-04-20T21:17:52.793Z,62.87
2023-04-20T21:19:14.836Z,62.60
2023-04-20T21:20:43.546Z,62.60
2023-04-20T21:22:05.747Z,62.43
2023-04-20T21:23:46.734Z,62.48
2023-04-20T21:25:24.608Z,62.45
2023-04-20T21:32:25.864Z,62.67
2023-04-20T21:33:48.599Z,62.70
2023-04-20T21:35:11.718Z,62.88
2023-04-20T21:36:34.379Z,63.04
2023-04-20T21:37:58.568Z,63.21
2023-04-20T21:39:21.114Z,63.44
2023-04-20T21:40:43.679Z,63.20
2023-04-20T21:42:11.566Z,63.20
2023-04-20T21:43:34.139Z,63.55
2023-04-20T21:45:02.917Z,63.49
2023-04-20T21:46:25.327Z,63.49
2023-04-20T21:47:51.568Z,63.57
2023-04-20T21:49:22.875Z,63.13
2023-04-20T21:50:47.952Z,63.66
2023-04-20T21:52:18.590Z,63.32
2023-04-20T21:53:41.322Z,63.48
2023-04-20T21:55:03.845Z,63.36
2023-04-20T21:56:58.798Z,63.73
2023-04-20T21:58:21.090Z,63.48
2023-04-20T21:59:46.188Z,63.50
2023-04-20T22:01:08.021Z,63.73
2023-04-20T22:02:31.952Z,63.44
2023-04-20T22:03:55.415Z,63.47
2023-04-20T22:05:21.947Z,63.60
2023-04-20T22:06:43.129Z,63.75
2023-04-20T22:08:10.089Z,63.98
2023-04-20T22:09:35.191Z,64.03
2023-04-20T22:10:58.511Z,64.11
2023-04-20T22:12:36.301Z,64.16
2023-04-20T22:14:09.357Z,64.07
2023-04-20T22:15:33.252Z,64.17
2023-04-20T22:16:54.846Z,64.10
2023-04-20T22:18:26.268Z,64.14
2023-04-20T22:19:49.962Z,64.11
2023-04-20T22:21:16.743Z,64.33
2023-04-20T22:22:57.344Z,64.43
2023-04-20T22:24:22.101Z,64.30
2023-04-20T22:25:46.462Z,64.59
2023-04-20T22:27:12.254Z,64.48
2023-04-20T22:28:34.803Z,64.73
2023-04-20T22:29:58.675Z,64.53
2023-04-20T22:31:21.208Z,64.53
2023-04-20T22:32:47.615Z,64.71
2023-04-20T22:34:18.457Z,64.54
2023-04-20T22:35:48.692Z,64.66
2023-04-20T22:37:11.999Z,64.73
2023-04-20T22:38:46.500Z,64.76
2023-04-20T22:40:09.149Z,64.72
2023-04-20T22:41:34.905Z,64.56
2023-04-20T22:42:56.206Z,64.66
2023-04-20T22:44:18.178Z,64.95
2023-04-20T22:45:40.262Z,64.81
2023-04-20T22:47:01.496Z,64.76
2023-04-20T22:48:23.597Z,64.63
2023-04-20T22:49:50.501Z,64.86
2023-04-20T22:51:14.034Z,64.72
2023-04-20T22:52:38.033Z,64.84
2023-04-20T22:54:02.876Z,64.93
2023-04-20T22:55:24.940Z,64.93
2023-04-20T22:56:46.375Z,64.69
2023-04-20T22:58:10.075Z,64.87
2023-04-20T22:59:32.227Z,65.04
2023-04-20T23:00:56.877Z,64.98
2023-04-20T23:02:22.045Z,64.91
2023-04-20T23:03:44.426Z,64.93
2023-04-20T23:05:07.087Z,64.81
2023-04-20T23:06:31.750Z,65.06
2023-04-20T23:07:56.910Z,64.69
2023-04-20T23:09:20.791Z,64.96
2023-04-20T23:10:47.347Z,64.86
2023-04-20T23:12:10.512Z,64.88
2023-04-20T23:13:33.400Z,65.09
2023-04-20T23:14:55.087Z,65.09
2023-04-20T23:16:17.603Z,65.03
2023-04-20T23:17:39.485Z,65.14
2023-04-20T23:19:01.886Z,64.92
2023-04-20T23:20:23.306Z,64.87
2023-04-20T23:21:47.289Z,65.05
2023-04-20T23:23:20.512Z,65.21
2023-04-20T23:24:43.289Z,65.18
2023-04-20T23:26:05.371Z,65.10
2023-04-20T23:27:27.125Z,64.99
2023-04-20T23:28:51.662Z,65.27
2023-04-20T23:30:16.909Z,65.14
2023-04-20T23:31:39.407Z,65.25
2023-04-20T23:33:04.982Z,65.17
2023-04-20T23:34:26.471Z,65.26
2023-04-20T23:35:50.453Z,65.33
2023-04-20T23:37:17.187Z,65.11
2023-04-20T23:38:38.662Z,65.50
2023-04-20T23:40:01.246Z,65.36
2023-04-20T23:41:23.501Z,65.26
2023-04-20T23:42:44.566Z,65.40
2023-04-20T23:44:07.074Z,65.43
2023-04-20T23:45:29.466Z,65.30
2023-04-20T23:46:52.545Z,65.44
2023-04-20T23:48:14.849Z,65.50
2023-04-20T23:49:39.311Z,65.54
2023-04-20T23:51:01.976Z,65.44
2023-04-20T23:52:25.964Z,65.51
2023-04-20T23:53:48.468Z,65.51
2023-04-20T23:55:10.728Z,65.42
2023-04-20T23:56:34.689Z,65.52
2023-04-20T23:57:58.529Z,65.54
